Time;durP1;ratioP1;P1;durP2;ratioP2;P2;SDS_P1;SDS_P2;PMS_P1;PMS_P2;Temp;Humidity;BMP_temperature;BMP_pressure;BME280_temperature;BME280_humidity;BME280_pressure;Samples;Min_cycle;Max_cycle;Signal;HPM_P1;HPM_P2
2023/06/30 00:01:51;;;;;;;0.73;0.73;;;;;;;8.96;100.00;99846.56;7391109;19;20348;-59
2023/06/30 00:04:22;;;;;;;0.40;0.40;;;;;;;8.84;100.00;99847.47;7393869;19;20077;-60
2023/06/30 00:06:50;;;;;;;0.20;0.20;;;;;;;8.78;100.00;99841.00;7388623;19;20020;-59
2023/06/30 00:09:19;;;;;;;0.47;0.47;;;;;;;8.75;100.00;99833.59;7391605;19;20049;-59
2023/06/30 00:11:55;;;;;;;1.00;0.60;;;;;;;8.73;100.00;99838.06;7391284;19;20049;-59
2023/06/30 00:14:24;;;;;;;0.38;0.30;;;;;;;8.72;100.00;99831.75;7392811;19;20014;-59
2023/06/30 00:16:50;;;;;;;1.27;0.35;;;;;;;8.69;100.00;99827.13;7389610;19;20347;-59
2023/06/30 00:19:17;;;;;;;0.40;0.40;;;;;;;8.66;100.00;99821.72;7392878;19;20026;-59
2023/06/30 00:21:43;;;;;;;1.05;1.05;;;;;;;8.61;100.00;99820.34;7402393;19;20014;-59
2023/06/30 00:24:10;;;;;;;1.95;0.30;;;;;;;8.61;100.00;99820.34;7403532;19;20518;-59
2023/06/30 00:26:37;;;;;;;5.57;0.65;;;;;;;8.57;100.00;99813.41;7397146;19;20357;-59
2023/06/30 00:29:03;;;;;;;0.60;0.60;;;;;;;8.55;100.00;99805.53;7404390;19;20470;-60
2023/06/30 00:31:30;;;;;;;0.60;0.60;;;;;;;8.53;100.00;99804.47;7399012;19;20093;-59
2023/06/30 00:33:57;;;;;;;0.40;0.40;;;;;;;8.45;100.00;99801.22;7403313;19;20011;-59
2023/06/30 00:36:23;;;;;;;0.38;0.32;;;;;;;8.58;100.00;99793.50;7398596;19;20467;-59
2023/06/30 00:38:54;;;;;;;0.43;0.43;;;;;;;8.68;100.00;99788.72;7403747;19;20458;-60
2023/06/30 00:41:24;;;;;;;0.30;0.30;;;;;;;8.98;100.00;99788.53;7402870;19;20046;-59
2023/06/30 00:43:50;;;;;;;0.47;0.47;;;;;;;8.45;100.00;99790.09;7399782;19;20478;-59
2023/06/30 00:46:18;;;;;;;0.68;0.57;;;;;;;8.41;100.00;99783.94;7392192;19;20586;-61
2023/06/30 00:48:45;;;;;;;1.05;0.50;;;;;;;8.21;100.00;99786.38;7397100;19;20107;-61
2023/06/30 00:51:13;;;;;;;0.35;0.35;;;;;;;8.17;100.00;99780.19;7392284;19;20036;-61
2023/06/30 00:53:40;;;;;;;0.95;0.63;;;;;;;8.16;100.00;99781.44;7399118;19;20463;-61
2023/06/30 00:56:07;;;;;;;4.35;1.08;;;;;;;8.10;100.00;99780.53;7395705;19;20011;-61
2023/06/30 00:58:33;;;;;;;0.55;0.47;;;;;;;8.60;100.00;99768.81;7397781;19;20014;-61
2023/06/30 01:01:10;;;;;;;0.35;0.35;;;;;;;9.54;100.00;99762.09;7397097;19;20388;-61
2023/06/30 01:03:48;;;;;;;0.45;0.45;;;;;;;9.36;100.00;99745.47;7400261;19;20021;-61
2023/06/30 01:06:41;;;;;;;0.57;0.57;;;;;;;8.89;100.00;99746.88;7397855;19;20011;-61
2023/06/30 01:09:15;;;;;;;0.52;0.52;;;;;;;8.87;100.00;99749.38;7397556;19;20074;-61
2023/06/30 01:11:42;;;;;;;1.00;0.73;;;;;;;8.61;100.00;99748.16;7399348;19;20088;-61
2023/06/30 01:14:10;;;;;;;0.35;0.35;;;;;;;8.53;100.00;99746.19;7398016;19;20021;-61
2023/06/30 01:16:40;;;;;;;0.70;0.70;;;;;;;8.48;100.00;99744.78;7397968;19;20014;-61
2023/06/30 01:19:18;;;;;;;0.52;0.52;;;;;;;8.45;100.00;99756.81;7403351;19;20374;-61
2023/06/30 01:21:46;;;;;;;1.45;0.47;;;;;;;8.39;100.00;99759.44;7397419;19;20014;-60
2023/06/30 01:24:19;;;;;;;1.00;0.68;;;;;;;8.09;100.00;99756.78;7397435;19;20048;-60
2023/06/30 01:26:46;;;;;;;3.45;0.60;;;;;;;8.24;100.00;99757.72;7396308;19;20010;-61
2023/06/30 01:29:12;;;;;;;0.30;0.30;;;;;;;7.85;100.00;99753.03;7398974;19;20017;-61
2023/06/30 01:31:43;;;;;;;0.30;0.30;;;;;;;7.81;100.00;99757.97;7397254;19;20011;-61
2023/06/30 01:34:09;;;;;;;0.60;0.60;;;;;;;8.17;100.00;99755.22;7399022;19;20066;-61
2023/06/30 01:36:35;;;;;;;0.43;0.43;;;;;;;8.26;100.00;99744.19;7395625;19;20070;-61
2023/06/30 01:39:02;;;;;;;0.35;0.35;;;;;;;8.16;100.00;99751.72;7394761;19;20045;-61
2023/06/30 01:41:28;;;;;;;1.52;0.40;;;;;;;8.25;100.00;99737.84;7399838;19;20351;-61
2023/06/30 01:43:55;;;;;;;2.78;1.15;;;;;;;8.74;100.00;99734.09;7396018;19;20021;-61
2023/06/30 01:46:21;;;;;;;0.55;0.55;;;;;;;8.56;100.00;99729.34;7395994;19;20018;-61
2023/06/30 01:48:49;;;;;;;0.30;0.30;;;;;;;8.60;100.00;99729.22;7402257;19;20344;-61
2023/06/30 01:51:16;;;;;;;1.50;0.50;;;;;;;10.26;100.00;99722.69;7398168;19;20071;-61
2023/06/30 01:53:43;;;;;;;0.45;0.40;;;;;;;11.43;100.00;99709.50;7396852;19;20015;-60
2023/06/30 01:56:12;;;;;;;3.28;0.38;;;;;;;11.95;100.00;99699.31;7397261;19;20014;-61
2023/06/30 01:58:38;;;;;;;4.10;0.77;;;;;;;9.41;100.00;99708.72;7396858;19;20017;-61
2023/06/30 02:01:04;;;;;;;0.52;0.52;;;;;;;9.11;100.00;99714.09;7399115;19;20010;-61
2023/06/30 02:03:30;;;;;;;0.77;0.52;;;;;;;9.06;100.00;99706.41;7398385;19;20007;-61
2023/06/30 02:05:57;;;;;;;2.85;0.68;;;;;;;9.07;100.00;99715.50;7397325;19;20015;-61
2023/06/30 02:08:23;;;;;;;0.57;0.55;;;;;;;9.04;100.00;99714.44;7395225;19;20038;-62
2023/06/30 02:10:49;;;;;;;0.73;0.55;;;;;;;8.86;100.00;99708.94;7396175;19;20329;-62
2023/06/30 02:13:16;;;;;;;0.60;0.60;;;;;;;9.13;100.00;99710.84;7395392;19;20015;-61
2023/06/30 02:15:42;;;;;;;0.30;0.28;;;;;;;8.84;100.00;99711.41;7396754;19;20018;-61
2023/06/30 02:18:08;;;;;;;0.85;0.85;;;;;;;8.85;100.00;99707.41;7395689;19;20017;-61
2023/06/30 02:20:35;;;;;;;0.57;0.40;;;;;;;9.19;100.00;99697.84;7396694;19;20025;-61
2023/06/30 02:23:02;;;;;;;0.68;0.38;;;;;;;9.31;100.00;99698.91;7397519;19;20014;-61
2023/06/30 02:25:28;;;;;;;1.85;0.55;;;;;;;9.47;100.00;99701.25;7397000;19;20026;-61
2023/06/30 02:27:55;;;;;;;0.30;0.30;;;;;;;9.22;100.00;99696.16;7396343;19;20007;-62
2023/06/30 02:30:21;;;;;;;0.43;0.30;;;;;;;9.38;100.00;99685.41;7395179;19;20383;-62
2023/06/30 02:32:47;;;;;;;1.17;0.80;;;;;;;9.21;100.00;99694.59;7395173;19;20010;-62
2023/06/30 02:35:13;;;;;;;0.20;0.20;;;;;;;9.53;100.00;99688.28;7400262;19;20027;-62
2023/06/30 02:37:40;;;;;;;0.93;0.50;;;;;;;9.52;100.00;99687.50;7394874;19;20435;-62
2023/06/30 02:40:08;;;;;;;0.40;0.40;;;;;;;10.24;100.00;99680.66;7397899;19;20015;-62
2023/06/30 02:42:34;;;;;;;0.30;0.30;;;;;;;10.81;100.00;99672.03;7399569;19;20478;-62
2023/06/30 02:45:00;;;;;;;0.43;0.43;;;;;;;10.43;100.00;99676.47;7393955;19;20073;-61
2023/06/30 02:47:27;;;;;;;0.30;0.22;;;;;;;9.71;100.00;99677.03;7394739;19;20022;-61
2023/06/30 02:49:53;;;;;;;3.63;0.57;;;;;;;9.86;100.00;99672.28;7394561;19;20019;-62
2023/06/30 02:52:19;;;;;;;0.55;0.32;;;;;;;9.71;100.00;99674.25;7398627;19;20082;-61
2023/06/30 02:54:45;;;;;;;1.65;0.68;;;;;;;9.69;100.00;99676.72;7395860;19;20031;-61
2023/06/30 02:57:12;;;;;;;0.22;0.22;;;;;;;9.87;100.00;99666.22;7396998;19;20026;-61
2023/06/30 02:59:39;;;;;;;0.40;0.30;;;;;;;10.44;100.00;99666.84;7393328;19;20339;-61
2023/06/30 03:02:06;;;;;;;1.77;0.65;;;;;;;11.24;100.00;99646.88;7395838;19;20077;-62
2023/06/30 03:04:32;;;;;;;0.70;0.70;;;;;;;10.81;100.00;99655.31;7398869;19;20082;-62
2023/06/30 03:06:59;;;;;;;0.43;0.43;;;;;;;10.37;100.00;99644.94;7393661;19;20025;-61
2023/06/30 03:09:25;;;;;;;0.95;0.80;;;;;;;11.44;100.00;99634.97;7393619;19;20014;-61
2023/06/30 03:11:51;;;;;;;0.20;0.20;;;;;;;10.02;100.00;99644.03;7397157;19;20025;-61
2023/06/30 03:14:20;;;;;;;0.40;0.40;;;;;;;9.64;100.00;99649.56;7394158;19;20452;-62
2023/06/30 03:16:46;;;;;;;0.57;0.57;;;;;;;10.35;100.00;99641.88;7392305;19;20014;-62
2023/06/30 03:19:14;;;;;;;0.38;0.38;;;;;;;9.67;100.00;99643.06;7393853;19;20021;-62
2023/06/30 03:21:40;;;;;;;0.55;0.55;;;;;;;9.37;100.00;99644.19;7396419;19;20021;-61
2023/06/30 03:24:07;;;;;;;0.40;0.40;;;;;;;9.13;100.00;99642.19;7399543;19;20460;-62
2023/06/30 03:26:34;;;;;;;0.55;0.40;;;;;;;9.13;100.00;99642.19;7392772;19;20010;-61
2023/06/30 03:29:01;;;;;;;0.20;0.20;;;;;;;9.20;100.00;99643.06;7392329;19;20088;-61
2023/06/30 03:31:28;;;;;;;0.43;0.32;;;;;;;9.31;100.00;99626.66;7394709;19;20039;-62
2023/06/30 03:33:55;;;;;;;0.57;0.52;;;;;;;9.24;100.00;99627.75;7395023;19;20006;-62
2023/06/30 03:36:21;;;;;;;0.38;0.38;;;;;;;9.04;100.00;99631.09;7396470;19;20358;-62
2023/06/30 03:38:47;;;;;;;0.17;0.17;;;;;;;8.87;100.00;99627.19;7393647;19;20029;-62
2023/06/30 03:41:14;;;;;;;0.38;0.30;;;;;;;8.86;100.00;99628.41;7392132;19;20081;-62
2023/06/30 03:43:40;;;;;;;0.63;0.63;;;;;;;8.88;100.00;99633.50;7395530;19;20019;-62
2023/06/30 03:46:06;;;;;;;11.05;0.88;;;;;;;9.59;100.00;99628.00;7393887;19;20006;-62
2023/06/30 03:48:33;;;;;;;0.30;0.20;;;;;;;9.80;100.00;99618.56;7391614;19;20114;-62
2023/06/30 03:50:59;;;;;;;0.25;0.25;;;;;;;9.90;100.00;99617.22;7396184;19;20006;-62
2023/06/30 03:53:25;;;;;;;0.50;0.50;;;;;;;9.89;100.00;99607.38;7391759;19;20073;-61
2023/06/30 03:55:52;;;;;;;0.82;0.40;;;;;;;9.53;100.00;99613.22;7391606;19;20023;-61
2023/06/30 03:58:18;;;;;;;0.20;0.20;;;;;;;9.46;100.00;99617.13;7392161;19;20039;-61
2023/06/30 04:00:44;;;;;;;1.00;0.50;;;;;;;9.64;100.00;99614.19;7392428;19;20021;-62
2023/06/30 04:03:10;;;;;;;1.02;0.52;;;;;;;9.71;100.00;99615.84;7395218;19;20015;-62
2023/06/30 04:05:36;;;;;;;0.75;0.40;;;;;;;9.73;100.00;99613.34;7390524;19;20483;-61
2023/06/30 04:08:03;;;;;;;1.05;0.43;;;;;;;10.08;100.00;99613.53;7394735;19;20014;-62
2023/06/30 04:10:29;;;;;;;0.60;0.57;;;;;;;9.68;100.00;99614.78;7393814;19;20362;-62
2023/06/30 04:12:55;;;;;;;0.40;0.40;;;;;;;9.98;100.00;99601.72;7391075;19;20011;-62
2023/06/30 04:15:21;;;;;;;1.27;0.63;;;;;;;9.86;100.00;99600.75;7393007;19;20006;-62
2023/06/30 04:17:47;;;;;;;0.70;0.47;;;;;;;9.83;100.00;99595.38;7393814;19;20074;-62
2023/06/30 04:20:15;;;;;;;0.63;0.63;;;;;;;9.82;100.00;99599.38;7391654;19;20108;-62
2023/06/30 04:22:42;;;;;;;0.50;0.50;;;;;;;12.15;100.00;99584.09;7393854;19;20015;-62
2023/06/30 04:25:08;;;;;;;1.65;0.65;;;;;;;16.99;100.00;99553.56;7391855;19;20329;-62
2023/06/30 04:27:35;;;;;;;1.67;0.75;;;;;;;19.25;100.00;99557.94;7391618;19;20351;-62
2023/06/30 04:30:03;;;;;;;1.08;0.98;;;;;;;18.77;100.00;99547.06;7395323;19;20078;-61
2023/06/30 04:32:29;;;;;;;0.52;0.40;;;;;;;12.36;100.00;99540.13;7391316;19;20011;-62
2023/06/30 04:34:57;;;;;;;0.30;0.30;;;;;;;14.53;100.00;99548.91;7392114;19;20017;-61
2023/06/30 04:37:28;;;;;;;0.43;0.43;;;;;;;12.02;100.00;99550.97;7388398;19;20018;-62
2023/06/30 04:39:56;;;;;;;0.40;0.40;;;;;;;11.71;100.00;99559.31;7392608;19;20023;-62
2023/06/30 04:42:22;;;;;;;0.30;0.20;;;;;;;11.53;100.00;99559.56;7396517;19;20039;-62
2023/06/30 04:44:49;;;;;;;0.30;0.30;;;;;;;11.40;100.00;99557.13;7391678;19;20499;-62
2023/06/30 04:47:16;;;;;;;2.92;0.90;;;;;;;12.16;100.00;99554.94;7392550;19;20024;-62
2023/06/30 04:49:42;;;;;;;0.68;0.57;;;;;;;11.51;100.00;99550.91;7396615;19;20014;-62
2023/06/30 04:52:09;;;;;;;1.10;0.40;;;;;;;11.41;100.00;99557.91;7393398;19;20021;-62
2023/06/30 04:54:35;;;;;;;0.63;0.60;;;;;;;11.39;100.00;99554.84;7396423;19;20019;-62
2023/06/30 04:57:01;;;;;;;0.85;0.63;;;;;;;11.39;100.00;99554.84;7391912;19;20019;-61
2023/06/30 04:59:27;;;;;;;0.93;0.50;;;;;;;11.39;100.00;99554.84;7394417;19;20010;-62
2023/06/30 05:01:53;;;;;;;0.20;0.20;;;;;;;19.49;100.00;99521.03;7391895;19;20035;-62
2023/06/30 05:04:19;;;;;;;0.95;0.40;;;;;;;15.72;100.00;99525.13;7394233;19;20010;-62
2023/06/30 05:06:45;;;;;;;3.92;0.35;;;;;;;12.90;100.00;99517.41;7396875;19;20011;-62
2023/06/30 05:09:12;;;;;;;1.52;0.65;;;;;;;12.56;100.00;99517.69;7399057;19;20445;-62
2023/06/30 05:11:38;;;;;;;1.60;1.08;;;;;;;12.00;100.00;99522.03;7397905;19;20018;-62
2023/06/30 05:14:04;;;;;;;1.00;0.25;;;;;;;11.68;100.00;99526.78;7398999;19;20066;-62
2023/06/30 05:16:30;;;;;;;0.43;0.40;;;;;;;11.68;100.00;99524.00;7397858;19;20010;-61
2023/06/30 05:18:57;;;;;;;1.35;0.40;;;;;;;13.50;100.00;99518.97;7398133;19;20128;-62
2023/06/30 05:21:23;;;;;;;3.08;0.57;;;;;;;13.79;100.00;99508.63;7396955;19;20364;-61
2023/06/30 05:23:49;;;;;;;0.40;0.35;;;;;;;13.67;100.00;99508.59;7400832;19;20015;-62
2023/06/30 05:26:15;;;;;;;0.20;0.20;;;;;;;15.48;100.00;99496.19;7400331;19;20010;-62
2023/06/30 05:28:41;;;;;;;0.52;0.52;;;;;;;16.44;100.00;99488.09;7398217;19;20014;-62
2023/06/30 05:31:07;;;;;;;0.60;0.40;;;;;;;12.88;100.00;99496.81;7401327;19;20014;-62
2023/06/30 05:33:33;;;;;;;1.95;0.55;;;;;;;12.44;100.00;99496.50;7400757;19;20006;-62
2023/06/30 05:35:59;;;;;;;1.00;0.45;;;;;;;14.83;100.00;99490.28;7397511;19;20032;-62
2023/06/30 05:38:26;;;;;;;6.25;0.65;;;;;;;12.63;100.00;99492.06;7400201;19;20034;-62
2023/06/30 05:40:52;;;;;;;3.63;0.38;;;;;;;12.51;100.00;99490.47;7396323;19;20007;-61
2023/06/30 05:43:18;;;;;;;1.40;0.60;;;;;;;12.48;100.00;99491.47;7400962;19;20017;-62
2023/06/30 05:45:44;;;;;;;1.08;0.43;;;;;;;12.66;100.00;99493.88;7395413;19;20352;-62
2023/06/30 05:48:11;;;;;;;0.75;0.75;;;;;;;13.09;100.00;99484.22;7396420;19;20020;-62
2023/06/30 05:50:37;;;;;;;0.30;0.30;;;;;;;12.59;100.00;99488.75;7397051;19;20010;-62
2023/06/30 05:53:03;;;;;;;0.30;0.30;;;;;;;12.46;100.00;99480.81;7396003;19;20088;-62
2023/06/30 05:55:29;;;;;;;0.10;0.10;;;;;;;12.69;100.00;99482.47;7396084;19;20019;-62
2023/06/30 05:57:55;;;;;;;2.95;0.22;;;;;;;12.68;100.00;99480.19;7394142;19;20011;-62
2023/06/30 06:00:24;;;;;;;0.30;0.17;;;;;;;12.72;100.00;99483.50;7396332;19;20014;-63
2023/06/30 06:02:50;;;;;;;1.23;0.15;;;;;;;12.75;100.00;99479.72;7401012;19;20022;-63
2023/06/30 06:05:17;;;;;;;0.30;0.20;;;;;;;12.77;100.00;99477.97;7396475;19;20074;-63
2023/06/30 06:07:43;;;;;;;0.47;0.20;;;;;;;19.50;100.00;99459.66;7397983;19;20006;-62
2023/06/30 06:10:09;;;;;;;0.40;0.35;;;;;;;20.12;100.00;99463.34;7396094;19;20318;-63
2023/06/30 06:12:39;;;;;;;0.35;0.35;;;;;;;14.84;100.00;99464.53;7397774;19;20017;-63
2023/06/30 06:15:06;;;;;;;1.10;0.47;;;;;;;13.73;100.00;99457.47;7395382;19;20007;-63
2023/06/30 06:17:33;;;;;;;0.60;0.10;;;;;;;13.46;100.00;99462.50;7392899;19;20021;-63
2023/06/30 06:19:59;;;;;;;0.30;0.30;;;;;;;13.45;100.00;99471.38;7396347;19;20011;-63
2023/06/30 06:22:25;;;;;;;0.30;0.20;;;;;;;13.58;100.00;99469.66;7397104;19;20007;-63
2023/06/30 06:24:51;;;;;;;0.95;0.60;;;;;;;13.61;100.00;99477.03;7396052;19;20019;-63
2023/06/30 06:27:18;;;;;;;2.13;0.52;;;;;;;14.06;100.00;99463.06;7395369;19;20043;-63
2023/06/30 06:29:44;;;;;;;0.30;0.30;;;;;;;13.72;100.00;99461.53;7399510;19;20031;-63
2023/06/30 06:32:10;;;;;;;0.90;0.60;;;;;;;13.82;100.00;99455.19;7395385;19;20010;-63
2023/06/30 06:34:38;;;;;;;0.95;0.10;;;;;;;14.00;100.00;99457.50;7399261;19;20045;-63
2023/06/30 06:37:04;;;;;;;1.00;0.10;;;;;;;14.27;100.00;99447.56;7393933;19;20014;-63
2023/06/30 06:39:30;;;;;;;0.10;0.10;;;;;;;14.43;100.00;99455.19;7399518;19;20328;-63
2023/06/30 06:41:56;;;;;;;0.40;0.30;;;;;;;14.20;100.00;99445.28;7396087;19;20018;-63
2023/06/30 06:44:23;;;;;;;0.10;0.10;;;;;;;14.39;100.00;99446.28;7394518;19;20027;-64
2023/06/30 06:47:27;;;;;;;1.90;0.38;;;;;;;14.23;100.00;99458.22;7396790;19;20007;-64
2023/06/30 06:49:54;;;;;;;1.95;0.40;;;;;;;14.39;100.00;99458.28;7396951;19;20025;-64
2023/06/30 06:52:20;;;;;;;0.28;0.10;;;;;;;14.26;100.00;99460.78;7393288;19;20015;-64
2023/06/30 06:54:46;;;;;;;0.77;0.40;;;;;;;14.18;100.00;99456.22;7395193;19;20022;-64
2023/06/30 06:57:12;;;;;;;1.38;0.52;;;;;;;14.43;100.00;99452.41;7394564;19;20010;-64
2023/06/30 06:59:38;;;;;;;1.00;0.40;;;;;;;14.22;100.00;99451.88;7399979;19;20089;-64
2023/06/30 07:02:05;;;;;;;0.77;0.55;;;;;;;14.27;100.00;99450.38;7395741;19;20344;-64
2023/06/30 07:04:31;;;;;;;0.98;0.35;;;;;;;16.97;100.00;99440.81;7401215;19;20022;-63
2023/06/30 07:06:57;;;;;;;0.85;0.20;;;;;;;15.18;100.00;99432.28;7395203;19;20007;-64
2023/06/30 07:09:23;;;;;;;0.10;0.05;;;;;;;16.43;100.00;99424.75;7398967;19;20547;-65
2023/06/30 07:11:50;;;;;;;0.25;0.25;;;;;;;15.37;100.00;99428.88;7395312;19;20034;-66
2023/06/30 07:14:18;;;;;;;4.65;0.45;;;;;;;15.33;100.00;99436.81;7397480;19;20014;-66
2023/06/30 07:16:44;;;;;;;0.17;0.10;;;;;;;14.91;100.00;99429.59;7394548;19;20010;-65
2023/06/30 07:19:10;;;;;;;0.90;0.52;;;;;;;14.96;100.00;99429.59;7394426;19;20043;-63
2023/06/30 07:21:36;;;;;;;0.30;0.30;;;;;;;15.38;100.00;99419.16;7398672;19;20010;-64
2023/06/30 07:24:02;;;;;;;1.70;0.60;;;;;;;15.00;100.00;99427.28;7399677;19;20074;-64
2023/06/30 07:26:31;;;;;;;0.93;0.32;;;;;;;14.93;100.00;99419.41;7393279;19;20028;-66
2023/06/30 07:28:57;;;;;;;2.92;0.40;;;;;;;14.91;100.00;99419.16;7395027;19;20036;-65
2023/06/30 07:31:23;;;;;;;1.45;0.30;;;;;;;14.69;100.00;99418.44;7397673;19;20010;-65
2023/06/30 07:33:49;;;;;;;1.35;0.50;;;;;;;14.71;100.00;99429.91;7392478;19;20038;-65
2023/06/30 07:36:16;;;;;;;0.25;0.17;;;;;;;14.84;100.00;99425.28;7396944;19;20002;-64
2023/06/30 07:38:42;;;;;;;0.93;0.43;;;;;;;14.84;100.00;99421.72;7396635;19;20007;-67
2023/06/30 07:41:08;;;;;;;0.43;0.28;;;;;;;14.82;100.00;99416.63;7396929;19;20023;-66
2023/06/30 07:43:34;;;;;;;0.15;0.10;;;;;;;14.90;100.00;99417.59;7395278;19;20018;-66
2023/06/30 07:46:00;;;;;;;0.30;0.30;;;;;;;14.92;100.00;99420.66;7397808;19;20014;-65
2023/06/30 07:48:26;;;;;;;2.17;0.40;;;;;;;14.88;100.00;99411.75;7396321;19;20017;-64
2023/06/30 07:50:53;;;;;;;3.10;0.75;;;;;;;14.90;100.00;99406.41;7395775;19;20014;-65
2023/06/30 07:53:21;;;;;;;3.17;0.43;;;;;;;14.91;100.00;99407.94;7396894;19;20014;-64
2023/06/30 07:55:47;;;;;;;0.22;0.17;;;;;;;14.96;100.00;99404.34;7398539;19;20014;-65
2023/06/30 07:58:13;;;;;;;0.20;0.10;;;;;;;14.96;100.00;99398.75;7397381;19;20499;-64
2023/06/30 08:00:39;;;;;;;0.63;0.20;;;;;;;14.98;100.00;99407.41;7393441;19;20022;-65
2023/06/30 08:03:05;;;;;;;1.05;0.45;;;;;;;14.97;100.00;99410.69;7395080;19;20014;-65
2023/06/30 08:05:31;;;;;;;1.80;0.47;;;;;;;14.92;100.00;99406.63;7391749;19;20007;-66
2023/06/30 08:07:57;;;;;;;2.30;0.60;;;;;;;14.85;100.00;99404.41;7390554;19;21414;-66
2023/06/30 08:10:24;;;;;;;13.50;1.17;;;;;;;14.77;100.00;99392.16;7391783;19;20017;-67
2023/06/30 08:12:50;;;;;;;1.27;0.75;;;;;;;14.68;100.00;99395.28;7394899;19;20007;-66
2023/06/30 08:15:16;;;;;;;2.15;0.65;;;;;;;14.61;100.00;99395.81;7397260;19;20011;-67
2023/06/30 08:17:42;;;;;;;3.22;1.02;;;;;;;14.52;100.00;99386.91;7393325;19;20014;-64
2023/06/30 08:20:09;;;;;;;1.17;0.90;;;;;;;14.48;100.00;99387.19;7392418;19;20332;-66
2023/06/30 08:22:35;;;;;;;0.90;0.43;;;;;;;14.42;100.00;99378.03;7393146;19;20025;-65
2023/06/30 08:25:01;;;;;;;2.05;0.57;;;;;;;14.52;100.00;99376.47;7390986;19;20362;-65
2023/06/30 08:27:28;;;;;;;2.10;0.85;;;;;;;14.26;100.00;99376.78;7394686;19;20494;-64
2023/06/30 08:29:54;;;;;;;1.45;0.40;;;;;;;14.41;100.00;99373.69;7390881;19;20078;-65
2023/06/30 08:32:21;;;;;;;0.98;0.50;;;;;;;14.35;100.00;99373.72;7391547;19;20015;-65
2023/06/30 08:34:47;;;;;;;1.05;0.47;;;;;;;14.30;100.00;99370.91;7390503;19;20026;-64
2023/06/30 08:37:13;;;;;;;1.85;0.35;;;;;;;14.21;100.00;99365.56;7390852;19;20018;-62
2023/06/30 08:39:39;;;;;;;3.95;0.57;;;;;;;14.65;100.00;99357.06;7395353;19;20022;-63
2023/06/30 08:42:06;;;;;;;0.57;0.30;;;;;;;14.52;100.00;99347.69;7395731;19;20043;-63
2023/06/30 08:44:35;;;;;;;0.22;0.17;;;;;;;14.58;100.00;99340.78;7399002;19;20388;-62
2023/06/30 08:47:02;;;;;;;10.40;0.80;;;;;;;14.22;100.00;99339.88;7400201;19;20467;-63
2023/06/30 08:49:31;;;;;;;0.70;0.28;;;;;;;14.50;100.00;99333.44;7402810;19;20007;-62
2023/06/30 08:51:57;;;;;;;1.70;1.15;;;;;;;14.57;100.00;99325.25;7404356;19;20106;-64
2023/06/30 08:54:24;;;;;;;1.52;1.08;;;;;;;14.55;100.00;99324.25;7400380;19;20328;-63
2023/06/30 08:56:53;;;;;;;3.60;1.00;;;;;;;14.48;100.00;99325.53;7395763;19;20035;-63
2023/06/30 08:59:20;;;;;;;3.88;0.93;;;;;;;14.46;100.00;99330.91;7400815;19;20006;-64
2023/06/30 09:01:46;;;;;;;1.70;1.02;;;;;;;14.59;100.00;99313.53;7400361;19;20022;-64
2023/06/30 09:04:13;;;;;;;6.22;1.42;;;;;;;14.68;100.00;99316.81;7403390;19;20341;-63
2023/06/30 09:06:45;;;;;;;6.93;0.85;;;;;;;15.89;100.00;99303.22;7399478;19;20034;-62
2023/06/30 09:09:20;;;;;;;3.40;1.52;;;;;;;15.80;100.00;99295.13;7399100;19;20362;-63
2023/06/30 09:11:47;;;;;;;1.77;0.65;;;;;;;15.77;100.00;99290.53;7403014;19;20018;-63
2023/06/30 09:14:14;;;;;;;4.68;1.27;;;;;;;15.84;100.00;99289.97;7398745;19;20014;-64
2023/06/30 09:16:40;;;;;;;1.35;0.45;;;;;;;15.96;100.00;99285.03;7395441;19;20472;-64
2023/06/30 09:19:07;;;;;;;5.40;1.55;;;;;;;16.19;100.00;99281.44;7397342;19;20013;-63
2023/06/30 09:21:33;;;;;;;1.85;0.60;;;;;;;16.23;100.00;99281.13;7400086;19;20043;-63
2023/06/30 09:23:59;;;;;;;1.30;0.63;;;;;;;16.22;100.00;99291.59;7401277;19;20015;-61
2023/06/30 09:26:29;;;;;;;1.77;0.30;;;;;;;16.10;100.00;99295.06;7397028;19;20025;-61
2023/06/30 09:28:55;;;;;;;1.00;0.57;;;;;;;16.08;100.00;99289.97;7397928;19;20438;-61
2023/06/30 09:31:30;;;;;;;1.45;0.73;;;;;;;16.09;100.00;99288.69;7398240;19;20040;-62
2023/06/30 09:34:13;;;;;;;0.90;0.40;;;;;;;16.18;100.00;99279.91;7402056;19;20010;-61
2023/06/30 09:36:50;;;;;;;0.63;0.45;;;;;;;16.23;100.00;99281.13;7397856;19;20035;-62
2023/06/30 09:39:17;;;;;;;1.23;0.52;;;;;;;16.39;100.00;99283.00;7398687;19;20028;-62
2023/06/30 09:41:45;;;;;;;1.40;0.50;;;;;;;16.40;100.00;99279.66;7397459;19;20018;-62
2023/06/30 09:44:12;;;;;;;5.60;0.63;;;;;;;16.44;100.00;99273.72;7397202;19;20078;-62
2023/06/30 09:46:52;;;;;;;1.95;0.43;;;;;;;16.45;100.00;99281.63;7397906;19;20015;-61
2023/06/30 09:49:32;;;;;;;1.63;0.32;;;;;;;16.37;100.00;99275.06;7398397;19;20034;-61
2023/06/30 09:52:03;;;;;;;0.95;0.43;;;;;;;16.32;100.00;99261.09;7398702;19;20066;-61
2023/06/30 09:54:31;;;;;;;1.73;0.32;;;;;;;16.36;100.00;99262.31;7399839;19;20011;-61
2023/06/30 09:56:58;;;;;;;0.32;0.32;;;;;;;16.32;100.00;99267.50;7395862;19;20575;-61
2023/06/30 09:59:24;;;;;;;3.30;1.23;;;;;;;16.33;100.00;99271.06;7397538;19;20023;-61
2023/06/30 10:01:54;;;;;;;0.93;0.35;;;;;;;16.28;100.00;99263.47;7396765;19;20329;-61
2023/06/30 10:04:20;;;;;;;3.67;0.55;;;;;;;16.24;100.00;99265.81;7401378;19;20039;-62
2023/06/30 10:06:47;;;;;;;2.08;0.38;;;;;;;16.33;100.00;99265.44;7397296;19;20015;-61
2023/06/30 10:09:20;;;;;;;0.68;0.10;;;;;;;16.56;100.00;99259.03;7398164;19;20044;-61
2023/06/30 10:11:51;;;;;;;1.45;0.35;;;;;;;16.70;100.00;99253.50;7400271;19;20018;-62
2023/06/30 10:14:20;;;;;;;0.77;0.15;;;;;;;16.76;100.00;99259.81;7397700;19;20332;-62
2023/06/30 10:16:48;;;;;;;0.38;0.10;;;;;;;16.90;100.00;99247.31;7396256;19;20010;-63
2023/06/30 10:19:15;;;;;;;0.55;0.22;;;;;;;16.84;100.00;99241.00;7395903;19;20042;-62
2023/06/30 10:21:42;;;;;;;0.57;0.20;;;;;;;16.70;100.00;99242.25;7396272;19;20014;-62
2023/06/30 10:24:10;;;;;;;3.25;0.20;;;;;;;16.63;100.00;99224.69;7400390;19;20013;-61
2023/06/30 10:26:38;;;;;;;1.02;0.10;;;;;;;16.68;100.00;99214.66;7396858;19;20006;-62
2023/06/30 10:29:04;;;;;;;2.97;0.43;;;;;;;16.71;100.00;99229.69;7397120;19;20011;-63
2023/06/30 10:31:32;;;;;;;0.30;0.10;;;;;;;16.63;100.00;99230.31;7396666;19;20025;-62
2023/06/30 10:33:58;;;;;;;0.50;0.10;;;;;;;16.57;100.00;99232.44;7399158;19;20010;-62
2023/06/30 10:36:25;;;;;;;0.15;0.13;;;;;;;16.50;100.00;99233.03;7395223;19;20480;-63
2023/06/30 10:38:53;;;;;;;1.17;0.30;;;;;;;16.56;100.00;99225.31;7394756;19;20014;-62
2023/06/30 10:41:22;;;;;;;0.25;0.10;;;;;;;16.55;100.00;99217.38;7396440;19;20014;-61
2023/06/30 10:44:00;;;;;;;0.63;0.43;;;;;;;16.38;100.00;99209.16;7396115;19;20018;-62
2023/06/30 10:46:59;;;;;;;1.17;0.45;;;;;;;16.33;100.00;99212.78;7399712;19;20006;-63
2023/06/30 10:49:35;;;;;;;0.32;0.17;;;;;;;16.40;100.00;99217.81;7393000;19;20523;-62
2023/06/30 10:52:07;;;;;;;3.83;0.20;;;;;;;16.30;100.00;99213.88;7394543;19;20464;-62
2023/06/30 10:54:52;;;;;;;1.63;0.38;;;;;;;16.14;100.00;99223.25;7392471;19;20037;-62
2023/06/30 10:57:21;;;;;;;0.47;0.30;;;;;;;16.03;100.00;99219.81;7393815;19;20083;-62
2023/06/30 11:00:01;;;;;;;0.10;0.05;;;;;;;16.45;100.00;99219.81;7394278;19;20015;-60
2023/06/30 11:02:31;;;;;;;0.17;0.10;;;;;;;16.28;100.00;99213.66;7394506;19;20006;-62
2023/06/30 11:05:23;;;;;;;0.52;0.20;;;;;;;16.00;100.00;99218.06;7392591;19;20015;-62
2023/06/30 11:08:03;;;;;;;1.08;0.22;;;;;;;15.83;100.00;99215.47;7394292;19;20032;-63
2023/06/30 11:10:32;;;;;;;0.95;0.28;;;;;;;16.50;100.00;99204.94;7398276;19;20010;-63
2023/06/30 11:13:11;;;;;;;1.38;0.30;;;;;;;16.33;100.00;99204.38;7395810;19;20096;-65
2023/06/30 11:15:38;;;;;;;0.50;0.20;;;;;;;16.18;100.00;99194.84;7394000;19;20006;-64
2023/06/30 11:18:26;;;;;;;0.77;0.35;;;;;;;16.37;100.00;99199.19;7393774;19;20452;-64
2023/06/30 11:20:59;;;;;;;1.40;0.28;;;;;;;16.43;100.00;99188.66;7394392;19;20035;-64
2023/06/30 11:23:32;;;;;;;0.10;0.10;;;;;;;16.83;100.00;99180.44;7398643;19;20014;-64
2023/06/30 11:26:11;;;;;;;0.63;0.30;;;;;;;16.83;100.00;99169.19;7394833;19;20014;-63
2023/06/30 11:28:39;;;;;;;0.35;0.35;;;;;;;16.90;100.00;99168.56;7397341;19;20018;-65
2023/06/30 11:31:06;;;;;;;0.30;0.15;;;;;;;17.06;100.00;99171.13;7394241;19;20019;-65